createdAt,value
2019-05-22T00:00:59.051Z,12.10
2019-05-22T00:03:35.874Z,12.20
2019-05-22T00:06:06.411Z,12.10
2019-05-22T00:08:36.527Z,12.10
2019-05-22T00:11:08.926Z,12.00
2019-05-22T00:13:39.900Z,12.00
2019-05-22T00:16:12.373Z,11.80
2019-05-22T00:18:42.057Z,11.80
2019-05-22T00:21:13.755Z,11.90
2019-05-22T00:23:43.922Z,11.70
2019-05-22T00:26:14.742Z,11.60
2019-05-22T00:28:43.610Z,11.40
2019-05-22T00:31:13.819Z,11.40
2019-05-22T00:33:43.684Z,11.30
2019-05-22T00:36:13.274Z,11.40
2019-05-22T00:38:41.853Z,11.30
2019-05-22T00:41:13.044Z,11.30
2019-05-22T00:43:45.172Z,11.40
2019-05-22T00:46:15.981Z,11.30
2019-05-22T00:48:46.142Z,11.20
2019-05-22T00:51:29.192Z,11.30
2019-05-22T00:53:59.728Z,11.20
2019-05-22T00:56:33.817Z,11.10
2019-05-22T00:59:19.944Z,11.00
2019-05-22T01:01:50.569Z,11.00
2019-05-22T01:04:24.227Z,10.90
2019-05-22T01:06:55.360Z,10.80
2019-05-22T01:09:25.912Z,10.70
2019-05-22T01:11:55.603Z,10.80
2019-05-22T01:14:40.479Z,10.80
2019-05-22T01:16:57.524Z,10.90
2019-05-22T01:19:29.197Z,10.80
2019-05-22T01:22:04.530Z,10.80
2019-05-22T01:24:35.005Z,10.80
2019-05-22T01:27:04.495Z,10.70
2019-05-22T01:29:34.104Z,10.70
2019-05-22T01:32:10.128Z,10.70
2019-05-22T01:34:39.113Z,10.60
2019-05-22T01:37:08.034Z,10.60
2019-05-22T01:39:46.753Z,10.60
2019-05-22T01:42:20.271Z,10.60
2019-05-22T01:45:01.359Z,10.50
2019-05-22T01:47:32.340Z,10.50
2019-05-22T01:50:01.291Z,10.50
2019-05-22T01:52:30.480Z,10.40
2019-05-22T01:54:59.810Z,10.40
2019-05-22T01:57:29.910Z,10.40
2019-05-22T01:59:58.991Z,10.40
2019-05-22T02:02:27.423Z,10.40
2019-05-22T02:04:58.140Z,10.40
2019-05-22T02:07:28.683Z,10.30
2019-05-22T02:09:59.572Z,10.30
2019-05-22T02:12:37.435Z,10.30
2019-05-22T02:15:07.633Z,10.30
2019-05-22T02:17:37.258Z,10.20
2019-05-22T02:20:08.023Z,10.30
2019-05-22T02:22:38.658Z,10.40
2019-05-22T02:25:08.319Z,10.30
2019-05-22T02:27:38.673Z,10.30
2019-05-22T02:30:07.620Z,10.30
2019-05-22T02:32:37.665Z,10.30
2019-05-22T02:35:08.777Z,10.20
2019-05-22T02:37:39.172Z,10.10
2019-05-22T02:40:16.102Z,10.10
2019-05-22T02:42:44.991Z,10.10
2019-05-22T02:45:13.465Z,10.00
2019-05-22T02:47:43.057Z,10.00
2019-05-22T02:50:12.432Z,10.00
2019-05-22T02:52:41.290Z,9.90
2019-05-22T02:55:10.513Z,9.90
2019-05-22T02:57:39.370Z,9.90
2019-05-22T03:00:08.825Z,9.90
2019-05-22T03:02:40.667Z,9.80
2019-05-22T03:05:11.009Z,9.90
2019-05-22T03:07:41.924Z,9.70
2019-05-22T03:10:13.056Z,9.70
2019-05-22T03:12:42.807Z,9.60
2019-05-22T03:15:14.020Z,9.60
2019-05-22T03:17:43.550Z,9.50
2019-05-22T03:20:18.819Z,9.50
2019-05-22T03:23:14.318Z,9.50
2019-05-22T03:25:44.007Z,9.50
2019-05-22T03:28:13.787Z,9.40
2019-05-22T03:30:44.309Z,9.30
2019-05-22T03:33:13.456Z,9.30
2019-05-22T03:35:45.811Z,9.30
2019-05-22T03:38:15.888Z,9.20
2019-05-22T03:40:44.912Z,9.20
2019-05-22T03:43:20.428Z,9.20
2019-05-22T03:45:50.540Z,9.10
2019-05-22T03:48:21.300Z,9.10
2019-05-22T03:50:49.840Z,9.10
2019-05-22T03:53:19.774Z,9.10
2019-05-22T03:55:50.285Z,9.00
2019-05-22T03:58:19.543Z,9.00
2019-05-22T04:00:52.190Z,9.00
2019-05-22T04:03:21.125Z,8.90
2019-05-22T04:05:50.136Z,8.90
2019-05-22T04:08:19.791Z,8.90
2019-05-22T04:10:57.608Z,8.90
2019-05-22T04:13:27.535Z,8.90
2019-05-22T04:15:57.151Z,8.90
2019-05-22T04:18:28.408Z,8.90
2019-05-22T04:20:58.222Z,8.80
2019-05-22T04:23:26.799Z,8.90
2019-05-22T04:25:56.739Z,8.80
2019-05-22T04:28:26.090Z,8.80
2019-05-22T04:30:55.003Z,8.90
2019-05-22T04:33:24.048Z,8.80
2019-05-22T04:35:52.849Z,8.80
2019-05-22T04:38:22.024Z,8.80
2019-05-22T04:40:53.028Z,8.80
2019-05-22T04:43:23.677Z,8.80
2019-05-22T04:45:53.669Z,8.80
2019-05-22T04:48:23.489Z,8.90
2019-05-22T04:50:53.160Z,8.90
2019-05-22T04:53:21.716Z,8.90
2019-05-22T04:55:50.129Z,9.00
2019-05-22T04:58:21.309Z,9.10
2019-05-22T05:00:50.344Z,9.10
2019-05-22T05:03:20.754Z,9.10
2019-05-22T05:05:50.967Z,9.20
2019-05-22T05:08:19.468Z,9.20
2019-05-22T05:10:49.977Z,9.30
2019-05-22T05:13:18.861Z,9.50
2019-05-22T05:15:47.349Z,9.50
2019-05-22T05:18:16.307Z,9.60
2019-05-22T05:20:44.902Z,9.70
2019-05-22T05:23:13.461Z,9.80
2019-05-22T05:25:43.380Z,9.90
2019-05-22T05:28:12.431Z,10.00
2019-05-22T05:30:41.099Z,10.10
2019-05-22T05:33:10.959Z,10.10
2019-05-22T05:35:39.657Z,10.20
2019-05-22T05:38:09.419Z,10.30
2019-05-22T05:40:39.701Z,10.30
2019-05-22T05:43:10.374Z,10.40
2019-05-22T05:45:41.348Z,10.50
2019-05-22T05:48:12.509Z,10.50
2019-05-22T05:50:44.160Z,10.70
2019-05-22T05:53:16.841Z,10.80
2019-05-22T05:56:14.588Z,10.90
2019-05-22T05:58:44.249Z,11.00
2019-05-22T06:01:19.544Z,11.10
2019-05-22T06:03:48.888Z,11.10
2019-05-22T06:06:27.130Z,11.20
2019-05-22T06:08:59.548Z,11.40
2019-05-22T06:11:39.594Z,11.70
2019-05-22T06:14:09.934Z,11.90
2019-05-22T06:17:07.194Z,12.10
2019-05-22T06:19:39.566Z,12.20
2019-05-22T06:22:09.197Z,12.30
2019-05-22T06:24:49.867Z,12.50
2019-05-22T06:27:19.985Z,12.80
2019-05-22T06:29:55.554Z,13.00
2019-05-22T06:32:55.818Z,13.10
2019-05-22T06:35:26.160Z,13.20
2019-05-22T06:38:09.499Z,13.40
2019-05-22T06:40:38.189Z,13.50
2019-05-22T06:43:25.518Z,13.50
2019-05-22T06:45:54.597Z,13.50
2019-05-22T06:48:23.144Z,13.50
2019-05-22T06:50:52.131Z,13.50
2019-05-22T06:53:20.956Z,13.50
2019-05-22T06:55:50.119Z,13.70
2019-05-22T06:58:19.516Z,13.90
2019-05-22T07:00:48.265Z,14.10
2019-05-22T07:03:17.134Z,14.20
2019-05-22T07:05:46.182Z,14.20
2019-05-22T07:08:15.064Z,14.20
2019-05-22T07:10:44.053Z,14.00
2019-05-22T07:13:14.044Z,14.00
2019-05-22T07:15:43.959Z,14.20
2019-05-22T07:18:14.600Z,14.30
2019-05-22T07:20:44.621Z,14.40
2019-05-22T07:23:14.983Z,14.50
2019-05-22T07:25:46.347Z,14.60
2019-05-22T07:28:17.850Z,14.90
2019-05-22T07:30:47.911Z,15.20
2019-05-22T07:33:17.845Z,15.00
2019-05-22T07:36:07.689Z,15.10
2019-05-22T07:38:19.229Z,15.20
2019-05-22T07:40:50.490Z,15.10
2019-05-22T07:43:20.496Z,15.10
2019-05-22T07:45:51.057Z,14.90
2019-05-22T07:48:20.991Z,15.00
2019-05-22T07:50:50.062Z,14.90
2019-05-22T07:53:19.172Z,15.00
2019-05-22T07:55:48.935Z,15.10
2019-05-22T07:58:18.456Z,15.20
2019-05-22T08:00:50.890Z,15.30
2019-05-22T08:03:20.204Z,15.30
2019-05-22T08:05:51.732Z,15.30
2019-05-22T08:08:22.441Z,15.40
2019-05-22T08:10:52.303Z,15.50
2019-05-22T08:13:20.790Z,15.30
2019-05-22T08:15:49.357Z,15.10
2019-05-22T08:18:18.111Z,15.20
2019-05-22T08:20:46.593Z,15.30
2019-05-22T08:23:15.764Z,15.20
2019-05-22T08:25:44.177Z,15.40
2019-05-22T08:28:13.595Z,15.30
2019-05-22T08:30:42.067Z,15.30
2019-05-22T08:33:15.109Z,15.50
2019-05-22T08:35:44.732Z,15.60
2019-05-22T08:38:13.891Z,15.60
2019-05-22T08:40:42.511Z,15.80
2019-05-22T08:43:11.385Z,15.60
2019-05-22T08:45:40.200Z,15.70
2019-05-22T08:48:09.182Z,16.00
2019-05-22T08:50:40.792Z,16.00
2019-05-22T08:53:11.397Z,15.90
2019-05-22T08:55:40.837Z,15.90
2019-05-22T08:58:10.136Z,15.70
2019-05-22T09:00:38.637Z,15.80
2019-05-22T09:03:07.410Z,16.00
2019-05-22T09:05:35.911Z,16.00
2019-05-22T09:08:04.568Z,16.10
2019-05-22T09:10:33.900Z,15.80
2019-05-22T09:13:02.334Z,15.70
2019-05-22T09:15:31.606Z,15.80
2019-05-22T09:18:00.750Z,16.10
2019-05-22T09:20:29.242Z,16.00
2019-05-22T09:22:59.573Z,16.00
2019-05-22T09:25:28.968Z,16.10
2019-05-22T09:27:57.839Z,16.10
2019-05-22T09:30:27.222Z,16.20
2019-05-22T09:32:56.971Z,16.30
2019-05-22T09:35:26.246Z,16.40
2019-05-22T09:37:54.754Z,16.50
2019-05-22T09:40:23.335Z,16.50
2019-05-22T09:42:52.112Z,16.40
2019-05-22T09:45:20.999Z,16.50
2019-05-22T09:47:49.551Z,16.60
2019-05-22T09:50:18.357Z,16.60
2019-05-22T09:52:56.862Z,16.60
2019-05-22T09:55:18.173Z,16.80
2019-05-22T09:57:46.738Z,16.80
2019-05-22T10:00:15.788Z,16.80
2019-05-22T10:02:44.480Z,16.90
2019-05-22T10:05:13.722Z,16.80
2019-05-22T10:07:57.780Z,16.80
2019-05-22T10:10:13.590Z,16.80
2019-05-22T10:12:42.337Z,16.70
2019-05-22T10:15:13.144Z,16.80
2019-05-22T10:17:47.271Z,16.80
2019-05-22T10:20:16.936Z,17.00
2019-05-22T10:22:46.055Z,16.90
2019-05-22T10:25:16.982Z,17.10
2019-05-22T10:27:46.063Z,17.10
2019-05-22T10:30:17.466Z,16.90
2019-05-22T10:32:45.887Z,16.90
2019-05-22T10:35:14.716Z,17.10
2019-05-22T10:37:43.231Z,17.20
2019-05-22T10:40:13.150Z,17.40
2019-05-22T10:42:44.611Z,17.60
2019-05-22T10:45:12.302Z,17.70
2019-05-22T10:47:41.254Z,17.80
2019-05-22T10:50:10.301Z,17.70
2019-05-22T10:52:39.270Z,17.90
2019-05-22T10:55:09.755Z,17.90
2019-05-22T10:57:40.981Z,17.70
2019-05-22T11:00:12.036Z,17.70
2019-05-22T11:02:41.755Z,17.80
2019-05-22T11:05:10.421Z,17.90
2019-05-22T11:07:38.988Z,18.00
2019-05-22T11:10:08.478Z,18.10
2019-05-22T11:12:36.960Z,18.00
2019-05-22T11:15:07.297Z,18.20
2019-05-22T11:17:36.217Z,18.30
2019-05-22T11:20:07.443Z,18.10
2019-05-22T11:22:37.186Z,18.10
2019-05-22T11:25:08.656Z,18.00
2019-05-22T11:27:37.270Z,18.20
2019-05-22T11:30:06.940Z,18.40
2019-05-22T11:32:35.791Z,18.20
2019-05-22T11:35:06.431Z,18.00
2019-05-22T11:37:35.434Z,18.10
2019-05-22T11:40:06.706Z,18.00
2019-05-22T11:42:35.459Z,18.00
2019-05-22T11:45:05.722Z,18.20
2019-05-22T11:47:35.392Z,18.30
2019-05-22T11:50:07.060Z,18.10
2019-05-22T11:52:36.327Z,17.70
2019-05-22T11:55:06.586Z,18.00
2019-05-22T11:57:37.959Z,18.30
2019-05-22T12:00:11.252Z,18.50
2019-05-22T12:02:39.805Z,18.60
2019-05-22T12:05:10.327Z,18.70
2019-05-22T12:07:43.339Z,18.80
2019-05-22T12:10:14.245Z,18.90
2019-05-22T12:12:44.418Z,18.90
2019-05-22T12:15:15.828Z,19.00
2019-05-22T12:17:44.910Z,19.00
2019-05-22T12:20:16.550Z,19.00
2019-05-22T12:22:45.309Z,19.10
2019-05-22T12:25:15.567Z,19.30
2019-05-22T12:27:44.085Z,19.40
2019-05-22T12:30:14.521Z,19.10
2019-05-22T12:32:43.347Z,19.40
2019-05-22T12:35:15.173Z,19.60
2019-05-22T12:37:44.649Z,19.60
2019-05-22T12:40:16.265Z,19.30
2019-05-22T12:42:45.186Z,19.30
2019-05-22T12:45:15.024Z,19.50
2019-05-22T12:47:43.878Z,19.70
2019-05-22T12:50:17.065Z,20.10
2019-05-22T12:52:48.669Z,20.00
2019-05-22T12:55:19.493Z,19.80
2019-05-22T12:57:49.340Z,19.70
2019-05-22T13:00:22.372Z,19.70
2019-05-22T13:02:52.342Z,20.00
2019-05-22T13:05:21.506Z,20.00
2019-05-22T13:07:50.979Z,19.90
2019-05-22T13:10:22.281Z,20.10
2019-05-22T13:12:50.988Z,20.30
2019-05-22T13:15:21.584Z,20.50
2019-05-22T13:17:51.649Z,20.30
2019-05-22T13:20:40.534Z,20.10
2019-05-22T13:22:52.976Z,20.20
2019-05-22T13:25:24.509Z,20.30
2019-05-22T13:27:53.467Z,20.10
2019-05-22T13:30:28.395Z,20.00
2019-05-22T13:32:57.024Z,20.10
2019-05-22T13:35:26.739Z,19.90
2019-05-22T13:37:56.593Z,19.80
2019-05-22T13:40:28.301Z,19.80
2019-05-22T13:42:58.512Z,20.00
2019-05-22T13:45:29.803Z,20.30
2019-05-22T13:47:58.953Z,20.40
2019-05-22T13:50:29.160Z,20.30
2019-05-22T13:53:00.499Z,20.20
2019-05-22T13:55:29.434Z,20.00
2019-05-22T13:57:58.164Z,20.20
2019-05-22T14:00:27.092Z,20.00
2019-05-22T14:02:55.553Z,20.40
2019-05-22T14:05:25.992Z,20.50
2019-05-22T14:07:54.465Z,20.40
2019-05-22T14:10:25.910Z,20.30
2019-05-22T14:12:55.182Z,20.60
2019-05-22T14:15:25.132Z,20.60
2019-05-22T14:17:54.090Z,20.80
2019-05-22T14:20:23.155Z,20.90
2019-05-22T14:22:51.711Z,20.90
2019-05-22T14:25:22.171Z,21.10
2019-05-22T14:27:50.753Z,21.20
2019-05-22T14:30:20.006Z,21.20
2019-05-22T14:32:48.551Z,20.90
2019-05-22T14:35:19.179Z,20.30
2019-05-22T14:37:48.155Z,20.10
2019-05-22T14:40:17.592Z,19.90
2019-05-22T14:42:46.221Z,19.80
2019-05-22T14:45:14.871Z,19.80
2019-05-22T14:47:43.755Z,20.20
2019-05-22T14:50:13.014Z,20.40
2019-05-22T14:52:41.752Z,20.70
2019-05-22T14:55:12.503Z,21.10
2019-05-22T14:57:40.988Z,21.20
2019-05-22T15:00:12.541Z,21.30
2019-05-22T15:02:41.178Z,21.50
2019-05-22T15:05:11.235Z,21.70
2019-05-22T15:07:39.692Z,21.40
2019-05-22T15:10:10.431Z,21.50
2019-05-22T15:12:39.017Z,21.40
2019-05-22T15:15:10.202Z,21.10
2019-05-22T15:17:39.275Z,21.10
2019-05-22T15:20:10.320Z,21.40
2019-05-22T15:22:39.139Z,21.90
2019-05-22T15:25:08.365Z,22.10
2019-05-22T15:27:37.350Z,22.30
2019-05-22T15:30:09.362Z,22.00
2019-05-22T15:32:37.795Z,22.20
2019-05-22T15:35:07.815Z,22.30
2019-05-22T15:37:37.421Z,22.20
2019-05-22T15:40:08.010Z,22.10
2019-05-22T15:42:39.733Z,21.90
2019-05-22T15:45:12.217Z,22.00
2019-05-22T15:47:54.216Z,21.70
2019-05-22T15:50:17.465Z,21.30
2019-05-22T15:52:48.988Z,20.90
2019-05-22T15:55:19.839Z,20.40
2019-05-22T15:57:48.428Z,20.20
2019-05-22T16:00:19.377Z,19.80
2019-05-22T16:02:50.050Z,19.40
2019-05-22T16:05:19.525Z,19.30
2019-05-22T16:07:49.915Z,19.00
2019-05-22T16:10:22.600Z,19.00
2019-05-22T16:12:52.834Z,18.90
2019-05-22T16:15:22.856Z,18.60
2019-05-22T16:18:09.892Z,18.40
2019-05-22T16:20:26.094Z,18.20
2019-05-22T16:22:54.772Z,18.00
2019-05-22T16:25:24.522Z,17.80
2019-05-22T16:27:54.589Z,17.70
2019-05-22T16:30:25.401Z,17.50
2019-05-22T16:32:56.418Z,17.40
2019-05-22T16:35:26.050Z,17.40
2019-05-22T16:37:56.978Z,17.30
2019-05-22T16:40:27.788Z,17.20
2019-05-22T16:42:58.587Z,17.10
2019-05-22T16:45:27.948Z,17.00
2019-05-22T16:47:56.512Z,16.90
2019-05-22T16:50:26.735Z,16.80
2019-05-22T16:52:56.201Z,16.60
2019-05-22T16:55:25.534Z,16.50
2019-05-22T16:57:54.713Z,16.40
2019-05-22T17:00:23.745Z,16.40
2019-05-22T17:02:52.508Z,16.30
2019-05-22T17:05:23.483Z,16.30
2019-05-22T17:07:52.611Z,16.20
2019-05-22T17:10:22.744Z,16.10
2019-05-22T17:12:52.998Z,16.00
2019-05-22T17:15:22.060Z,16.00
2019-05-22T17:17:50.844Z,15.90
2019-05-22T17:20:21.732Z,15.90
2019-05-22T17:22:50.306Z,15.80
2019-05-22T17:25:20.481Z,15.80
2019-05-22T17:27:49.722Z,15.80
2019-05-22T17:30:21.316Z,15.80
2019-05-22T17:32:49.797Z,15.70
2019-05-22T17:35:20.157Z,15.60
2019-05-22T17:37:49.300Z,15.50
2019-05-22T17:40:20.315Z,15.40
2019-05-22T17:42:51.087Z,15.40
2019-05-22T17:45:21.831Z,15.30
2019-05-22T17:47:51.210Z,15.20
2019-05-22T17:50:26.869Z,15.20
2019-05-22T17:52:52.009Z,15.20
2019-05-22T17:55:21.552Z,15.30
2019-05-22T17:57:50.439Z,15.20
2019-05-22T18:00:33.961Z,15.10
2019-05-22T18:03:04.405Z,15.00
2019-05-22T18:05:33.634Z,14.90
2019-05-22T18:08:03.514Z,14.80
2019-05-22T18:10:39.878Z,14.80
2019-05-22T18:13:05.859Z,14.80
2019-05-22T18:15:34.739Z,14.80
2019-05-22T18:18:04.056Z,14.80
2019-05-22T18:20:42.321Z,14.80
2019-05-22T18:23:03.850Z,14.80
2019-05-22T18:25:32.966Z,14.70
2019-05-22T18:28:02.811Z,14.80
2019-05-22T18:30:32.495Z,14.80
2019-05-22T18:33:01.064Z,14.70
2019-05-22T18:35:30.501Z,14.50
2019-05-22T18:37:58.934Z,14.40
2019-05-22T18:40:27.491Z,14.20
2019-05-22T18:42:56.168Z,14.10
2019-05-22T18:45:25.227Z,14.00
2019-05-22T18:47:54.701Z,14.00
2019-05-22T18:50:23.345Z,13.80
2019-05-22T18:52:52.199Z,13.70
2019-05-22T18:55:20.711Z,13.70
2019-05-22T18:57:49.113Z,13.80
2019-05-22T19:00:21.525Z,13.60
2019-05-22T19:02:50.573Z,13.50
2019-05-22T19:05:22.086Z,13.50
2019-05-22T19:07:51.313Z,13.40
2019-05-22T19:10:20.650Z,13.30
2019-05-22T19:12:49.545Z,13.10
2019-05-22T19:15:19.526Z,12.90
2019-05-22T19:17:48.125Z,12.80
2019-05-22T19:20:16.971Z,12.70
2019-05-22T19:22:59.012Z,12.60
2019-05-22T19:25:16.413Z,12.50
2019-05-22T19:27:44.821Z,12.40
2019-05-22T19:30:14.242Z,12.30
2019-05-22T19:32:42.813Z,12.10
2019-05-22T19:35:11.331Z,12.10
2019-05-22T19:37:39.926Z,12.00
2019-05-22T19:40:10.590Z,11.90
2019-05-22T19:42:39.286Z,11.90
2019-05-22T19:45:09.504Z,11.80
2019-05-22T19:47:39.664Z,11.70
2019-05-22T19:50:22.288Z,11.70
2019-05-22T19:52:42.147Z,11.60
2019-05-22T19:55:12.530Z,11.50
2019-05-22T19:57:41.490Z,11.50
2019-05-22T20:00:10.373Z,11.40
2019-05-22T20:02:38.858Z,11.30
2019-05-22T20:05:08.889Z,11.30
2019-05-22T20:07:38.343Z,11.30
2019-05-22T20:10:11.334Z,11.30
2019-05-22T20:12:40.992Z,11.30
2019-05-22T20:15:11.058Z,11.30
2019-05-22T20:17:39.658Z,11.20
2019-05-22T20:20:12.710Z,11.20
2019-05-22T20:22:42.967Z,11.10
2019-05-22T20:25:13.888Z,11.00
2019-05-22T20:27:42.576Z,10.90
2019-05-22T20:30:13.693Z,10.90
2019-05-22T20:32:42.739Z,10.80
2019-05-22T20:35:11.898Z,10.80
2019-05-22T20:37:41.945Z,10.70
2019-05-22T20:40:11.417Z,10.70
2019-05-22T20:42:40.634Z,10.60
2019-05-22T20:45:10.745Z,10.60
2019-05-22T20:47:41.888Z,10.60
2019-05-22T20:50:11.249Z,10.50
2019-05-22T20:52:39.985Z,10.40
2019-05-22T20:55:09.538Z,10.40
2019-05-22T20:57:38.036Z,10.40
2019-05-22T21:00:09.853Z,10.30
2019-05-22T21:02:40.217Z,10.30
2019-05-22T21:05:11.439Z,10.20
2019-05-22T21:07:48.910Z,10.10
2019-05-22T21:10:18.162Z,10.10
2019-05-22T21:12:46.586Z,10.10
2019-05-22T21:15:15.438Z,10.00
2019-05-22T21:17:44.994Z,10.00
2019-05-22T21:20:15.298Z,9.90
2019-05-22T21:22:44.610Z,9.90
2019-05-22T21:25:13.416Z,9.90
2019-05-22T21:27:43.132Z,9.80
2019-05-22T21:30:14.784Z,9.80
2019-05-22T21:32:43.986Z,9.80
2019-05-22T21:35:13.923Z,9.70
2019-05-22T21:37:42.502Z,9.70
2019-05-22T21:40:12.095Z,9.70
2019-05-22T21:42:41.745Z,9.70
2019-05-22T21:45:11.097Z,9.70
2019-05-22T21:47:41.508Z,9.60
2019-05-22T21:50:11.548Z,9.60
2019-05-22T21:52:40.095Z,9.50
2019-05-22T21:55:10.407Z,9.50
2019-05-22T21:57:39.608Z,9.50
2019-05-22T22:00:24.350Z,9.50
2019-05-22T22:02:52.843Z,9.40
2019-05-22T22:05:21.254Z,9.40
2019-05-22T22:07:50.308Z,9.40
2019-05-22T22:10:20.144Z,9.30
2019-05-22T22:12:49.100Z,9.30
2019-05-22T22:15:18.906Z,9.30
2019-05-22T22:17:47.340Z,9.30
2019-05-22T22:20:18.659Z,9.30
2019-05-22T22:22:48.898Z,9.30
2019-05-22T22:25:19.036Z,9.20
2019-05-22T22:27:47.713Z,9.20
2019-05-22T22:30:35.598Z,9.20
2019-05-22T22:33:08.964Z,9.20
2019-05-22T22:35:38.258Z,9.10
2019-05-22T22:38:08.298Z,9.10
2019-05-22T22:40:37.383Z,9.10
2019-05-22T22:43:06.035Z,9.10
2019-05-22T22:45:41.117Z,9.10
2019-05-22T22:48:10.296Z,9.00
2019-05-22T22:50:39.104Z,9.10
2019-05-22T22:53:08.062Z,9.00
2019-05-22T22:55:39.368Z,9.00
2019-05-22T22:58:17.190Z,9.00
2019-05-22T23:00:40.675Z,8.90
2019-05-22T23:03:11.740Z,8.90
2019-05-22T23:05:42.880Z,8.90
2019-05-22T23:08:14.447Z,8.90
2019-05-22T23:10:44.496Z,8.90
2019-05-22T23:13:14.739Z,8.90
2019-05-22T23:15:44.318Z,8.80
2019-05-22T23:18:31.031Z,8.90
2019-05-22T23:20:58.412Z,8.80
2019-05-22T23:23:25.728Z,8.80
2019-05-22T23:25:54.526Z,8.80
2019-05-22T23:28:34.095Z,8.80
2019-05-22T23:30:54.485Z,8.80
2019-05-22T23:33:23.748Z,8.80
2019-05-22T23:35:52.701Z,8.70
2019-05-22T23:38:21.475Z,8.70
2019-05-22T23:40:50.330Z,8.70
2019-05-22T23:43:19.884Z,8.80
2019-05-22T23:45:49.603Z,8.80
2019-05-22T23:48:19.697Z,8.70
2019-05-22T23:50:48.191Z,8.80
2019-05-22T23:53:16.601Z,8.80
2019-05-22T23:55:46.268Z,8.80
2019-05-22T23:58:17.542Z,8.80
